Time;durP1;ratioP1;P1;durP2;ratioP2;P2;SDS_P1;SDS_P2;PMS_P1;PMS_P2;Temp;Humidity;BMP_temperature;BMP_pressure;BME280_temperature;BME280_humidity;BME280_pressure;Samples;Min_cycle;Max_cycle;Signal;HPM_P1;HPM_P2
2023/12/23 00:00:15;;;;;;;6.53;2.20;;;;;;;7.15;100.00;100921.00;5070801;28;20021;-59
2023/12/23 00:02:40;;;;;;;4.68;2.20;;;;;;;7.15;100.00;100906.94;5070595;28;20044;-59
2023/12/23 00:05:06;;;;;;;5.32;2.72;;;;;;;7.23;100.00;100917.97;5069560;28;20511;-58
2023/12/23 00:07:32;;;;;;;5.93;2.22;;;;;;;7.23;100.00;100915.31;5070919;28;20017;-58
2023/12/23 00:09:57;;;;;;;2.95;2.00;;;;;;;7.22;100.00;100916.25;5070430;28;20059;-59
2023/12/23 00:12:22;;;;;;;5.47;2.22;;;;;;;7.23;100.00;100918.81;5070785;28;20077;-59
2023/12/23 00:14:51;;;;;;;8.70;2.50;;;;;;;7.28;100.00;100922.09;5070651;28;20023;-58
2023/12/23 00:17:16;;;;;;;9.70;3.38;;;;;;;7.31;100.00;100923.75;5070675;28;20031;-58
2023/12/23 00:19:41;;;;;;;11.35;3.08;;;;;;;7.29;100.00;100912.38;5069173;28;20032;-58
2023/12/23 00:22:07;;;;;;;4.43;2.40;;;;;;;7.27;100.00;100906.31;5070719;28;20059;-58
2023/12/23 00:24:32;;;;;;;6.20;2.50;;;;;;;7.30;100.00;100903.53;5070388;28;20024;-59
2023/12/23 00:26:58;;;;;;;3.90;2.55;;;;;;;7.36;100.00;100910.31;5072737;28;20063;-58
2023/12/23 00:29:24;;;;;;;8.60;2.42;;;;;;;7.25;100.00;100895.81;5073494;28;20076;-58
2023/12/23 00:31:50;;;;;;;8.73;2.67;;;;;;;7.34;100.00;100899.78;5074197;28;20028;-58
2023/12/23 00:34:15;;;;;;;5.63;2.83;;;;;;;7.34;100.00;100896.31;5074457;28;20533;-58
2023/12/23 00:36:43;;;;;;;4.43;2.90;;;;;;;7.32;100.00;100901.66;5075350;28;20016;-59
2023/12/23 00:39:09;;;;;;;11.10;2.92;;;;;;;7.30;100.00;100898.25;5087304;28;20050;-58
2023/12/23 00:41:35;;;;;;;3.95;2.55;;;;;;;7.35;100.00;100885.63;5099261;28;20020;-58
2023/12/23 00:44:01;;;;;;;5.80;2.90;;;;;;;7.33;100.00;100892.81;5095138;28;20062;-58
2023/12/23 00:46:28;;;;;;;8.25;3.17;;;;;;;7.37;100.00;100890.84;5114853;28;20107;-58
2023/12/23 00:48:54;;;;;;;9.38;3.22;;;;;;;7.43;100.00;100883.47;5114546;28;20534;-58
2023/12/23 00:51:19;;;;;;;13.20;3.42;;;;;;;7.50;100.00;100882.25;5122719;27;20011;-58
2023/12/23 00:53:45;;;;;;;6.65;3.00;;;;;;;7.57;100.00;100876.66;5095876;28;20019;-59
2023/12/23 00:56:10;;;;;;;9.98;2.50;;;;;;;7.68;100.00;100885.75;5096472;28;20031;-58
2023/12/23 00:58:35;;;;;;;10.18;3.03;;;;;;;7.69;100.00;100868.94;5096161;28;20481;-58
2023/12/23 01:01:01;;;;;;;11.82;3.75;;;;;;;7.71;100.00;100874.16;5114716;28;20020;-59
2023/12/23 01:03:27;;;;;;;8.55;2.97;;;;;;;7.77;100.00;100863.25;5114219;28;20085;-59
2023/12/23 01:05:54;;;;;;;13.00;5.50;;;;;;;7.82;100.00;100860.34;5096206;28;20070;-59
2023/12/23 01:08:20;;;;;;;14.70;2.90;;;;;;;7.82;100.00;100863.00;5116458;27;20043;-59
2023/12/23 01:10:45;;;;;;;10.88;3.63;;;;;;;7.86;100.00;100872.53;5099518;28;20058;-59
2023/12/23 01:13:10;;;;;;;13.50;2.97;;;;;;;7.89;100.00;100869.72;5115501;27;20027;-59
2023/12/23 01:15:36;;;;;;;9.45;2.83;;;;;;;7.92;100.00;100859.81;5119603;27;20024;-59
2023/12/23 01:18:01;;;;;;;11.45;3.15;;;;;;;7.99;100.00;100849.75;5096442;28;20474;-58
2023/12/23 01:20:27;;;;;;;7.05;3.70;;;;;;;7.96;100.00;100864.00;5096457;28;20024;-58
2023/12/23 01:22:52;;;;;;;7.38;3.15;;;;;;;7.99;100.00;100855.03;5098966;28;20019;-58
2023/12/23 01:25:17;;;;;;;6.72;2.88;;;;;;;7.93;100.00;100845.63;5095694;28;20035;-59
2023/12/23 01:27:43;;;;;;;12.18;3.22;;;;;;;7.91;100.00;100841.34;5114144;28;20174;-59
2023/12/23 01:30:09;;;;;;;10.80;3.45;;;;;;;7.99;100.00;100836.50;5114179;27;20398;-58
2023/12/23 01:32:34;;;;;;;11.30;3.42;;;;;;;8.01;100.00;100847.88;5095564;28;20152;-59
2023/12/23 01:34:59;;;;;;;10.90;2.85;;;;;;;8.03;100.00;100845.13;5113812;27;20031;-59
2023/12/23 01:37:25;;;;;;;7.57;2.90;;;;;;;8.05;100.00;100845.94;5114072;28;20035;-58
2023/12/23 01:39:50;;;;;;;7.90;2.95;;;;;;;8.06;100.00;100850.28;5098171;27;20542;-58
2023/12/23 01:42:16;;;;;;;11.90;2.95;;;;;;;8.15;100.00;100837.41;5115266;27;20023;-59
2023/12/23 01:44:41;;;;;;;11.45;3.88;;;;;;;8.12;100.00;100834.09;5113454;27;20119;-59
2023/12/23 01:47:07;;;;;;;10.90;2.90;;;;;;;8.16;100.00;100828.53;5114248;27;20107;-59
2023/12/23 01:49:34;;;;;;;9.65;2.90;;;;;;;8.15;100.00;100831.28;5115599;27;20398;-59
2023/12/23 01:52:00;;;;;;;15.85;3.38;;;;;;;8.14;100.00;100824.25;5116395;27;20522;-58
2023/12/23 01:54:26;;;;;;;10.20;3.42;;;;;;;8.17;100.00;100834.66;5095880;27;20031;-59
2023/12/23 01:56:53;;;;;;;18.45;3.03;;;;;;;8.19;100.00;100838.97;5113266;28;20023;-59
2023/12/23 01:59:19;;;;;;;11.27;3.10;;;;;;;8.18;100.00;100836.41;5113232;27;20400;-59
2023/12/23 02:01:48;;;;;;;12.65;3.25;;;;;;;8.29;100.00;100844.59;5113730;27;20031;-59
2023/12/23 02:04:14;;;;;;;10.45;3.00;;;;;;;8.20;100.00;100830.06;5115757;27;20028;-59
2023/12/23 02:06:39;;;;;;;9.70;2.78;;;;;;;8.38;100.00;100849.47;5096493;27;20516;-59
2023/12/23 02:09:05;;;;;;;11.15;2.97;;;;;;;8.19;100.00;100823.06;5113142;27;20055;-59
2023/12/23 02:11:42;;;;;;;12.25;4.75;;;;;;;8.16;100.00;100817.06;5096128;27;20470;-59
2023/12/23 02:14:54;;;;;;;8.88;3.45;;;;;;;8.16;100.00;100823.22;5114227;27;20046;-59
2023/12/23 02:17:20;;;;;;;7.88;2.55;;;;;;;8.22;100.00;100808.81;5110950;27;20031;-58
2023/12/23 02:19:45;;;;;;;12.13;4.60;;;;;;;8.12;100.00;100807.59;5117601;27;20012;-59
2023/12/23 02:22:11;;;;;;;12.70;2.67;;;;;;;8.16;100.00;100812.63;5094569;27;20030;-59
2023/12/23 02:24:36;;;;;;;9.30;2.90;;;;;;;8.18;100.00;100816.06;5096086;28;20024;-59
2023/12/23 02:27:09;;;;;;;7.63;4.07;;;;;;;8.12;100.00;100813.75;5094719;28;20042;-58
2023/12/23 02:29:35;;;;;;;13.10;3.10;;;;;;;8.14;100.00;100813.66;5094655;28;20031;-58
2023/12/23 02:32:01;;;;;;;10.88;3.20;;;;;;;8.05;100.00;100819.44;5115612;27;20046;-59
2023/12/23 02:34:28;;;;;;;11.95;3.50;;;;;;;8.07;100.00;100814.94;5114153;27;20027;-58
2023/12/23 02:36:55;;;;;;;19.58;3.28;;;;;;;8.09;100.00;100819.22;5114720;27;20024;-59
2023/12/23 02:39:20;;;;;;;15.77;3.30;;;;;;;8.10;100.00;100820.91;5112500;28;20067;-58
2023/12/23 02:41:46;;;;;;;6.88;2.97;;;;;;;8.13;100.00;100810.16;5113697;27;20055;-59
2023/12/23 02:44:11;;;;;;;13.98;3.80;;;;;;;8.15;100.00;100807.44;5115308;27;20020;-59
2023/12/23 02:46:37;;;;;;;8.68;3.20;;;;;;;8.10;100.00;100810.31;5095295;27;20512;-59
2023/12/23 02:49:03;;;;;;;12.35;3.70;;;;;;;8.11;100.00;100800.56;5111573;28;20043;-58
2023/12/23 02:51:28;;;;;;;8.27;3.08;;;;;;;8.18;100.00;100789.56;5115196;27;20047;-59
2023/12/23 02:53:53;;;;;;;8.88;3.22;;;;;;;8.14;100.00;100784.50;5115471;27;20101;-59
2023/12/23 02:56:19;;;;;;;13.55;2.92;;;;;;;8.12;100.00;100781.09;5096214;28;20016;-59
2023/12/23 02:58:46;;;;;;;5.63;2.97;;;;;;;8.11;100.00;100782.88;5094243;27;20030;-59
2023/12/23 03:01:12;;;;;;;9.80;2.90;;;;;;;8.20;100.00;100777.06;5112157;27;20031;-59
2023/12/23 03:03:37;;;;;;;11.73;3.60;;;;;;;8.19;100.00;100770.06;5112851;28;20020;-59
2023/12/23 03:06:03;;;;;;;12.38;3.22;;;;;;;8.13;100.00;100772.22;5115183;27;20035;-59
2023/12/23 03:08:28;;;;;;;15.48;2.80;;;;;;;8.19;100.00;100771.88;5111901;28;20057;-59
2023/12/23 03:10:53;;;;;;;12.48;3.33;;;;;;;8.23;100.00;100778.72;5099411;28;20024;-59
2023/12/23 03:13:19;;;;;;;11.57;3.33;;;;;;;8.26;100.00;100765.28;5096148;28;20153;-59
2023/12/23 03:15:44;;;;;;;10.93;3.53;;;;;;;8.27;100.00;100766.16;5112808;27;20046;-58
2023/12/23 03:18:10;;;;;;;13.65;3.33;;;;;;;8.33;100.00;100773.78;5111588;28;20493;-59
2023/12/23 03:20:35;;;;;;;9.63;2.92;;;;;;;8.38;100.00;100769.97;5113603;27;20481;-59
2023/12/23 03:23:02;;;;;;;10.65;3.63;;;;;;;8.25;100.00;100771.53;5111512;28;20032;-59
2023/12/23 03:25:29;;;;;;;7.38;2.75;;;;;;;8.30;100.00;100771.31;5110799;27;20012;-59
2023/12/23 03:27:54;;;;;;;12.30;3.08;;;;;;;8.29;100.00;100762.47;5117107;27;20022;-58
2023/12/23 03:30:20;;;;;;;8.50;3.20;;;;;;;8.32;100.00;100764.94;5115147;27;20027;-59
2023/12/23 03:32:45;;;;;;;8.90;2.80;;;;;;;8.40;100.00;100780.47;5093349;28;20118;-59
2023/12/23 03:35:10;;;;;;;13.98;3.50;;;;;;;8.35;100.00;100786.00;5111406;28;20023;-58
2023/12/23 03:37:36;;;;;;;11.80;3.25;;;;;;;8.38;100.00;100762.03;5094905;28;20496;-59
2023/12/23 03:40:01;;;;;;;9.63;3.08;;;;;;;8.38;100.00;100769.97;5095046;27;20035;-59
2023/12/23 03:42:26;;;;;;;14.50;3.50;;;;;;;8.33;100.00;100768.47;5113978;27;20030;-59
2023/12/23 03:44:52;;;;;;;12.98;3.20;;;;;;;8.40;100.00;100768.06;5114659;27;20570;-59
2023/12/23 03:47:17;;;;;;;12.52;2.92;;;;;;;8.32;100.00;100775.56;5111420;28;20019;-59
2023/12/23 03:49:43;;;;;;;9.70;3.03;;;;;;;8.46;100.00;100760.72;5111863;28;20050;-59
2023/12/23 03:52:08;;;;;;;15.35;3.05;;;;;;;8.37;100.00;100760.25;5111587;28;20509;-58
2023/12/23 03:54:33;;;;;;;10.18;3.13;;;;;;;8.39;100.00;100761.06;5094033;28;20023;-58
2023/12/23 03:56:59;;;;;;;12.43;4.05;;;;;;;8.37;100.00;100740.84;5111087;28;20069;-59
2023/12/23 03:59:24;;;;;;;8.98;4.00;;;;;;;8.37;100.00;100749.66;5092944;28;20031;-59
2023/12/23 04:01:49;;;;;;;8.93;4.30;;;;;;;8.31;100.00;100757.94;5092991;28;20028;-59
2023/12/23 04:04:15;;;;;;;11.15;4.25;;;;;;;8.32;100.00;100764.94;5093478;28;20035;-59
2023/12/23 04:06:40;;;;;;;9.55;3.53;;;;;;;8.35;100.00;100751.56;5095347;28;20034;-59
2023/12/23 04:09:06;;;;;;;16.70;3.63;;;;;;;8.35;100.00;100758.63;5111655;28;20090;-59
2023/12/23 04:11:35;;;;;;;8.32;3.08;;;;;;;8.37;100.00;100746.16;5074730;28;20475;-59
2023/12/23 04:14:00;;;;;;;13.60;2.85;;;;;;;8.38;100.00;100748.78;5093747;28;20023;-59
2023/12/23 04:16:25;;;;;;;10.02;3.38;;;;;;;8.35;100.00;100758.63;5120144;28;20113;-59
2023/12/23 04:18:51;;;;;;;8.73;3.38;;;;;;;8.38;100.00;100753.16;5106446;28;20027;-59
2023/12/23 04:21:16;;;;;;;11.77;3.35;;;;;;;8.45;100.00;100745.78;5114419;28;20076;-59
2023/12/23 04:23:42;;;;;;;10.57;3.30;;;;;;;8.35;100.00;100740.09;5112109;28;20026;-58
2023/12/23 04:26:08;;;;;;;9.90;2.95;;;;;;;8.38;100.00;100750.50;5113607;28;20027;-59
2023/12/23 04:28:33;;;;;;;8.55;2.90;;;;;;;8.35;100.00;100724.19;5093359;28;20035;-59
2023/12/23 04:30:59;;;;;;;9.35;2.80;;;;;;;8.36;100.00;100744.47;5112521;28;20466;-59
2023/12/23 04:33:24;;;;;;;8.73;3.28;;;;;;;8.40;100.00;100725.66;5114274;28;20065;-59
2023/12/23 04:35:50;;;;;;;9.77;3.35;;;;;;;8.34;100.00;100714.53;5112004;28;20420;-59
2023/12/23 04:38:17;;;;;;;8.27;2.95;;;;;;;8.37;100.00;100712.56;5093145;28;20024;-59
2023/12/23 04:40:45;;;;;;;7.65;2.40;;;;;;;8.33;100.00;100705.75;5126336;28;20408;-59
2023/12/23 04:43:10;;;;;;;13.45;4.10;;;;;;;8.36;100.00;100710.00;5099016;28;20502;-59
2023/12/23 04:45:36;;;;;;;7.95;3.45;;;;;;;8.35;100.00;100711.81;5112931;28;20115;-59
2023/12/23 04:48:02;;;;;;;6.40;2.83;;;;;;;8.68;100.00;100726.78;5122091;28;20041;-59
2023/12/23 04:50:27;;;;;;;12.00;3.20;;;;;;;8.41;100.00;100706.19;5113891;28;20084;-59
2023/12/23 04:52:52;;;;;;;12.63;3.55;;;;;;;8.41;100.00;100715.91;5121272;28;20486;-58
2023/12/23 04:55:18;;;;;;;10.40;2.75;;;;;;;8.43;100.00;100702.59;5114475;28;20047;-58
2023/12/23 04:57:43;;;;;;;8.57;3.30;;;;;;;8.33;100.00;100697.78;5128087;28;20031;-58
2023/12/23 05:00:11;;;;;;;5.75;3.03;;;;;;;8.46;100.00;100715.69;5113835;28;20030;-59
2023/12/23 05:02:39;;;;;;;8.43;2.90;;;;;;;8.45;100.00;100700.72;5130303;28;20023;-59
2023/12/23 05:05:04;;;;;;;7.43;3.22;;;;;;;8.41;100.00;100698.25;5130470;28;20031;-58
2023/12/23 05:07:33;;;;;;;11.05;2.60;;;;;;;8.46;100.00;100703.28;5128944;28;20027;-59
2023/12/23 05:09:58;;;;;;;7.22;2.90;;;;;;;8.49;100.00;100702.25;5122681;28;20071;-59
2023/12/23 05:12:23;;;;;;;10.57;2.83;;;;;;;8.44;100.00;100709.59;5110365;27;20106;-59
2023/12/23 05:14:50;;;;;;;8.82;2.80;;;;;;;8.34;100.00;100694.19;5115735;27;20030;-59
2023/12/23 05:17:15;;;;;;;8.50;2.95;;;;;;;8.45;100.00;100698.91;5104150;28;20015;-59
2023/12/23 05:19:41;;;;;;;12.13;3.17;;;;;;;8.43;100.00;100703.44;5098274;27;20031;-59
2023/12/23 05:22:07;;;;;;;6.57;2.97;;;;;;;8.44;100.00;100697.19;5097718;28;20028;-58
2023/12/23 05:24:33;;;;;;;11.43;4.25;;;;;;;8.37;100.00;100701.13;5114492;27;20019;-59
2023/12/23 05:26:58;;;;;;;4.60;2.60;;;;;;;8.40;100.00;100707.13;5098130;28;20027;-59
2023/12/23 05:29:26;;;;;;;11.15;4.07;;;;;;;8.39;100.00;100686.03;5095893;28;20091;-59
2023/12/23 05:31:51;;;;;;;11.00;3.13;;;;;;;8.37;100.00;100693.16;5097334;27;20027;-59
2023/12/23 05:34:21;;;;;;;11.38;3.40;;;;;;;8.39;100.00;100684.22;5100571;28;20011;-59
2023/12/23 05:36:46;;;;;;;8.77;2.95;;;;;;;8.46;100.00;100687.38;5118617;27;20442;-59
2023/12/23 05:39:12;;;;;;;12.32;3.25;;;;;;;8.50;100.00;100682.75;5087311;28;20139;-60
2023/12/23 05:41:38;;;;;;;9.20;3.63;;;;;;;8.56;100.00;100674.44;5076229;28;20401;-60
2023/12/23 05:44:04;;;;;;;15.80;4.38;;;;;;;8.49;100.00;100679.25;5075682;28;20036;-58
2023/12/23 05:46:29;;;;;;;5.88;3.40;;;;;;;8.51;100.00;100685.31;5078819;28;20443;-59
2023/12/23 05:48:55;;;;;;;8.57;3.55;;;;;;;8.50;100.00;100690.69;5074214;28;20024;-58
2023/12/23 05:51:20;;;;;;;11.00;3.45;;;;;;;8.50;100.00;100677.44;5073525;28;20028;-59
2023/12/23 05:53:45;;;;;;;9.40;3.13;;;;;;;8.49;100.00;100681.03;5070869;28;20063;-59
2023/12/23 05:56:11;;;;;;;14.88;3.25;;;;;;;8.51;100.00;100693.28;5075025;28;20070;-59
2023/12/23 05:58:36;;;;;;;11.65;3.25;;;;;;;8.46;100.00;100694.47;5073402;28;20030;-59
2023/12/23 06:01:02;;;;;;;12.05;3.28;;;;;;;8.53;100.00;100680.78;5075301;28;20032;-59
2023/12/23 06:03:28;;;;;;;12.88;2.80;;;;;;;8.49;100.00;100681.91;5074725;28;20079;-59
2023/12/23 06:05:53;;;;;;;9.63;3.15;;;;;;;8.52;100.00;100688.81;5075582;28;20024;-59
2023/12/23 06:08:18;;;;;;;7.63;3.25;;;;;;;8.61;100.00;100701.53;5074541;28;20032;-59
2023/12/23 06:10:44;;;;;;;10.15;3.50;;;;;;;8.52;100.00;100689.66;5072673;28;20031;-59
2023/12/23 06:13:09;;;;;;;8.43;3.47;;;;;;;8.51;100.00;100681.81;5072036;28;20032;-59
2023/12/23 06:15:35;;;;;;;10.82;3.13;;;;;;;8.55;100.00;100664.78;5071905;28;20028;-59
2023/12/23 06:18:00;;;;;;;11.18;3.47;;;;;;;8.55;100.00;100676.25;5074988;28;20036;-58
2023/12/23 06:20:25;;;;;;;8.98;3.42;;;;;;;8.52;100.00;100671.13;5077475;28;20387;-58
2023/12/23 06:22:51;;;;;;;9.32;3.20;;;;;;;8.53;100.00;100682.56;5072417;28;20074;-58
2023/12/23 06:25:16;;;;;;;10.30;3.05;;;;;;;8.58;100.00;100677.88;5071995;28;20037;-59
2023/12/23 06:27:45;;;;;;;10.50;3.50;;;;;;;8.53;100.00;100691.41;5073630;28;20081;-58
2023/12/23 06:30:10;;;;;;;6.80;3.42;;;;;;;8.56;100.00;100679.75;5072273;28;20020;-59
2023/12/23 06:32:36;;;;;;;11.52;3.03;;;;;;;8.60;100.00;100683.94;5072559;28;20111;-59
2023/12/23 06:35:01;;;;;;;10.45;3.25;;;;;;;8.56;100.00;100667.38;5072352;28;20032;-59
2023/12/23 06:37:27;;;;;;;12.02;3.42;;;;;;;8.60;100.00;100689.25;5072342;28;20024;-59
2023/12/23 06:39:52;;;;;;;10.63;3.38;;;;;;;8.59;100.00;100696.34;5070932;28;20491;-59
2023/12/23 06:42:17;;;;;;;6.55;3.35;;;;;;;8.61;100.00;100688.28;5074838;28;20027;-59
2023/12/23 06:44:45;;;;;;;13.20;3.67;;;;;;;8.61;100.00;100689.13;5078701;28;20032;-59
2023/12/23 06:47:13;;;;;;;8.77;3.03;;;;;;;8.60;100.00;100687.44;5073448;28;20073;-59
2023/12/23 06:49:38;;;;;;;9.55;3.17;;;;;;;8.59;100.00;100699.00;5070213;28;20021;-59
2023/12/23 06:52:04;;;;;;;9.07;3.13;;;;;;;8.56;100.00;100677.97;5069382;28;20074;-59
2023/12/23 06:54:30;;;;;;;8.23;2.63;;;;;;;8.59;100.00;100674.28;5069018;28;20112;-59
2023/12/23 06:56:55;;;;;;;11.80;2.95;;;;;;;8.60;100.00;100674.19;5069406;28;20024;-59
2023/12/23 06:59:20;;;;;;;10.48;3.00;;;;;;;8.55;100.00;100673.59;5070376;28;20032;-59
2023/12/23 07:01:46;;;;;;;17.02;3.35;;;;;;;8.59;100.00;100669.00;5070458;28;20420;-59
2023/12/23 07:04:11;;;;;;;15.45;4.05;;;;;;;8.62;100.00;100660.84;5071700;28;20150;-59
2023/12/23 07:06:37;;;;;;;12.90;3.47;;;;;;;8.60;100.00;100665.38;5070330;28;20391;-59
2023/12/23 07:09:02;;;;;;;11.52;3.35;;;;;;;8.64;100.00;100665.09;5069751;28;20020;-59
2023/12/23 07:11:28;;;;;;;12.23;3.47;;;;;;;8.75;100.00;100658.34;5070151;28;20055;-59
2023/12/23 07:13:53;;;;;;;8.80;3.10;;;;;;;8.70;100.00;100671.00;5070243;28;20032;-59
2023/12/23 07:16:19;;;;;;;8.15;3.35;;;;;;;8.67;100.00;100661.41;5070331;28;20040;-59
2023/12/23 07:18:44;;;;;;;12.00;3.13;;;;;;;8.60;100.00;100647.69;5069984;28;20028;-59
2023/12/23 07:21:11;;;;;;;7.85;3.85;;;;;;;8.67;100.00;100663.22;5070038;28;20425;-59
2023/12/23 07:23:36;;;;;;;9.45;3.03;;;;;;;8.59;100.00;100669.00;5069942;28;20016;-59
2023/12/23 07:26:03;;;;;;;7.90;2.80;;;;;;;8.65;100.00;100681.88;5071274;28;20081;-59
2023/12/23 07:28:29;;;;;;;14.00;3.47;;;;;;;8.60;100.00;100676.84;5071321;28;20026;-59
2023/12/23 07:30:54;;;;;;;14.38;3.65;;;;;;;8.66;100.00;100690.69;5071067;28;20043;-59
2023/12/23 07:33:21;;;;;;;17.27;3.33;;;;;;;8.62;100.00;100688.22;5071138;28;20024;-59
2023/12/23 07:35:46;;;;;;;9.70;2.95;;;;;;;8.70;100.00;100702.81;5069204;28;20082;-59
2023/12/23 07:38:12;;;;;;;7.07;3.20;;;;;;;8.58;100.00;100685.81;5069300;28;20028;-59
2023/12/23 07:40:38;;;;;;;8.27;2.92;;;;;;;8.63;100.00;100691.72;5103448;28;20597;-59
2023/12/23 07:43:04;;;;;;;11.63;3.17;;;;;;;8.76;100.00;100710.41;5111267;28;20042;-59
2023/12/23 07:45:29;;;;;;;11.95;3.35;;;;;;;8.76;100.00;100721.88;5111975;28;20402;-59
2023/12/23 07:47:55;;;;;;;8.32;3.15;;;;;;;8.79;100.00;100713.72;5093724;28;20397;-59
2023/12/23 07:50:21;;;;;;;17.98;3.38;;;;;;;8.79;100.00;100695.16;5097335;27;20031;-59
2023/12/23 07:52:46;;;;;;;7.63;3.60;;;;;;;8.76;100.00;100707.75;5114178;27;20106;-59
2023/12/23 07:55:12;;;;;;;12.45;3.05;;;;;;;8.77;100.00;100688.28;5098287;28;20122;-59
2023/12/23 07:57:37;;;;;;;10.70;3.00;;;;;;;8.84;100.00;100698.41;5093370;28;20043;-59
2023/12/23 08:00:03;;;;;;;10.75;3.00;;;;;;;8.84;100.00;100686.97;5117218;27;20031;-59
2023/12/23 08:02:29;;;;;;;7.60;2.70;;;;;;;8.85;100.00;100691.31;5093314;28;20031;-59
2023/12/23 08:04:54;;;;;;;11.70;3.15;;;;;;;8.86;100.00;100693.03;5108606;28;20486;-59
2023/12/23 08:07:20;;;;;;;7.32;2.75;;;;;;;8.76;100.00;100684.75;5094031;28;20031;-59
2023/12/23 08:09:45;;;;;;;11.27;3.20;;;;;;;8.86;100.00;100696.53;5092499;28;20027;-59
2023/12/23 08:12:11;;;;;;;20.38;3.17;;;;;;;8.79;100.00;100673.97;5110999;28;20036;-59
2023/12/23 08:14:39;;;;;;;9.13;2.78;;;;;;;8.86;100.00;100693.03;5111438;28;20035;-59
2023/12/23 08:17:05;;;;;;;10.48;3.65;;;;;;;8.93;100.00;100694.38;5111366;28;20106;-59
2023/12/23 08:19:30;;;;;;;8.15;3.28;;;;;;;8.93;100.00;100702.34;5092990;28;20119;-59
2023/12/23 08:21:56;;;;;;;8.65;2.70;;;;;;;8.94;100.00;100706.72;5092801;28;20030;-59
2023/12/23 08:24:23;;;;;;;5.03;2.83;;;;;;;8.98;100.00;100707.38;5092418;28;20058;-59
2023/12/23 08:26:49;;;;;;;9.82;3.13;;;;;;;8.99;100.00;100709.94;5109591;28;20536;-59
2023/12/23 08:29:15;;;;;;;8.77;2.92;;;;;;;8.94;100.00;100703.19;5093298;28;20351;-59
2023/12/23 08:31:44;;;;;;;9.98;3.22;;;;;;;8.94;100.00;100712.03;5111519;28;20027;-59
2023/12/23 08:34:10;;;;;;;30.58;4.25;;;;;;;8.92;99.98;100710.41;5110569;28;20028;-60
2023/12/23 08:36:35;;;;;;;11.32;2.70;;;;;;;9.06;99.12;100699.84;5112375;28;20470;-59
2023/12/23 08:39:01;;;;;;;8.93;3.08;;;;;;;9.01;100.00;100699.25;5092040;28;20038;-59
2023/12/23 08:41:26;;;;;;;11.93;3.70;;;;;;;9.04;100.00;100707.88;5093004;28;20035;-59
2023/12/23 08:43:51;;;;;;;11.23;2.85;;;;;;;9.05;100.00;100727.28;5110939;28;20059;-59
2023/12/23 08:46:19;;;;;;;10.85;3.00;;;;;;;9.07;100.00;100720.94;5111732;28;20023;-60
2023/12/23 08:48:45;;;;;;;14.43;4.70;;;;;;;9.05;100.00;100728.13;5114441;27;20016;-59
2023/12/23 08:51:10;;;;;;;6.85;2.38;;;;;;;9.07;100.00;100731.56;5115069;28;20035;-59
2023/12/23 08:53:38;;;;;;;7.05;2.35;;;;;;;9.17;100.00;100707.13;5096361;28;20118;-59
2023/12/23 08:56:05;;;;;;;8.27;3.25;;;;;;;9.08;100.00;100711.19;5117238;27;20089;-59
2023/12/23 08:58:31;;;;;;;6.63;2.75;;;;;;;9.14;100.00;100726.75;5115813;27;20111;-59
2023/12/23 09:00:57;;;;;;;9.70;3.38;;;;;;;9.12;100.00;100733.06;5094305;28;20062;-59
2023/12/23 09:03:23;;;;;;;7.25;2.33;;;;;;;9.14;100.00;100741.81;5114235;27;20026;-59
2023/12/23 09:05:48;;;;;;;11.20;2.97;;;;;;;9.08;100.00;100748.31;5096234;28;20015;-59
2023/12/23 09:08:14;;;;;;;7.32;2.67;;;;;;;9.08;100.00;100750.97;5099038;27;20114;-59
2023/12/23 09:10:39;;;;;;;5.82;2.60;;;;;;;8.96;100.00;100747.25;5118939;27;20015;-59
2023/12/23 09:13:07;;;;;;;7.90;2.75;;;;;;;8.91;100.00;100753.75;5116394;27;20030;-59
2023/12/23 09:15:35;;;;;;;10.63;2.65;;;;;;;8.89;100.00;100753.84;5111983;28;20028;-59
2023/12/23 09:18:03;;;;;;;5.70;3.00;;;;;;;8.89;100.00;100755.66;5096015;28;20031;-59
2023/12/23 09:20:29;;;;;;;10.65;2.55;;;;;;;8.85;100.00;100749.66;5096772;28;20019;-59
2023/12/23 09:22:54;;;;;;;10.70;2.97;;;;;;;8.87;100.00;100756.59;5095811;28;20444;-59
2023/12/23 09:25:19;;;;;;;5.45;2.40;;;;;;;8.83;100.00;100765.66;5115526;27;20031;-59
2023/12/23 09:27:45;;;;;;;9.30;2.92;;;;;;;8.76;100.00;100760.78;5115384;27;20031;-59
2023/12/23 09:30:11;;;;;;;7.03;3.03;;;;;;;8.78;100.00;100757.13;5115439;27;20051;-59
2023/12/23 09:32:38;;;;;;;7.55;3.78;;;;;;;8.80;100.00;100771.16;5116501;27;20031;-59
2023/12/23 09:35:07;;;;;;;11.85;3.25;;;;;;;8.81;100.00;100759.59;5097072;28;20035;-59
2023/12/23 09:37:32;;;;;;;6.57;2.78;;;;;;;8.83;100.00;100747.09;5096819;28;20028;-59
2023/12/23 09:40:01;;;;;;;8.32;3.15;;;;;;;8.84;100.00;100747.97;5114926;27;20447;-59
2023/12/23 09:42:28;;;;;;;5.85;2.80;;;;;;;8.92;100.00;100753.69;5112460;27;20031;-59
2023/12/23 09:44:53;;;;;;;9.07;2.75;;;;;;;8.95;100.00;100752.66;5114040;28;20098;-59
2023/12/23 09:47:19;;;;;;;8.75;3.03;;;;;;;9.02;100.00;100767.25;5095437;28;20377;-59
2023/12/23 09:49:47;;;;;;;7.10;2.55;;;;;;;9.01;100.00;100782.31;5114187;28;20035;-59
2023/12/23 09:52:13;;;;;;;4.68;2.65;;;;;;;9.09;100.00;100760.66;5111214;28;20023;-59
2023/12/23 09:54:44;;;;;;;9.40;3.30;;;;;;;9.09;100.00;100758.03;5095408;28;20515;-59
2023/12/23 09:57:11;;;;;;;9.25;2.75;;;;;;;9.07;100.00;100760.75;5113728;28;20114;-59
2023/12/23 09:59:36;;;;;;;6.88;2.53;;;;;;;9.05;100.00;100754.66;5114857;27;20028;-59
2023/12/23 10:02:02;;;;;;;15.95;2.90;;;;;;;9.07;100.00;100763.41;5113868;27;20080;-59
2023/12/23 10:04:31;;;;;;;7.95;3.08;;;;;;;9.12;100.00;100770.22;5095095;28;20394;-59
2023/12/23 10:06:56;;;;;;;5.55;2.80;;;;;;;9.22;100.00;100774.06;5113713;28;20027;-59
2023/12/23 10:09:23;;;;;;;11.95;2.80;;;;;;;9.16;100.00;100788.53;5114070;27;20028;-59
2023/12/23 10:11:48;;;;;;;9.00;2.65;;;;;;;9.19;100.00;100775.09;5113518;28;20023;-59
2023/12/23 10:14:14;;;;;;;11.98;2.75;;;;;;;9.17;100.00;100798.19;5113950;27;20038;-59
2023/12/23 10:16:41;;;;;;;9.80;2.75;;;;;;;9.19;100.00;100776.91;5113540;27;20080;-62
2023/12/23 10:19:09;;;;;;;10.00;3.78;;;;;;;9.17;100.00;100784.09;5096316;28;20076;-59
2023/12/23 10:21:41;;;;;;;9.95;3.05;;;;;;;9.18;100.00;100788.47;5113699;28;20027;-59
2023/12/23 10:24:06;;;;;;;7.63;2.60;;;;;;;9.13;99.44;100775.44;5115464;27;20020;-59
2023/12/23 10:26:33;;;;;;;8.77;2.83;;;;;;;9.25;99.18;100765.91;5094975;28;20478;-59
2023/12/23 10:29:03;;;;;;;4.05;2.65;;;;;;;9.24;99.72;100780.16;5112762;28;20020;-59
2023/12/23 10:31:31;;;;;;;8.05;3.15;;;;;;;9.29;99.05;100770.97;5094899;28;20081;-59
2023/12/23 10:34:02;;;;;;;11.32;2.55;;;;;;;9.26;99.59;100768.47;5116622;27;20374;-59
2023/12/23 10:36:27;;;;;;;6.93;2.50;;;;;;;9.32;98.56;100767.25;5112875;27;20019;-59
2023/12/23 10:39:04;;;;;;;11.00;3.38;;;;;;;9.36;98.69;100778.56;5128165;27;20027;-59
2023/12/23 10:41:53;;;;;;;6.03;2.40;;;;;;;9.41;98.19;100782.66;5107984;27;20359;-59
2023/12/23 10:44:19;;;;;;;9.35;2.80;;;;;;;9.44;97.42;100769.22;5098319;28;20489;-59
2023/12/23 10:46:46;;;;;;;4.30;2.30;;;;;;;9.46;97.46;100785.88;5094551;28;20020;-59
2023/12/23 10:49:13;;;;;;;8.07;2.72;;;;;;;9.49;98.03;100780.38;5093968;28;20020;-59
2023/12/23 10:51:41;;;;;;;6.38;2.50;;;;;;;9.49;98.14;100771.56;5094770;28;20023;-59
2023/12/23 10:54:09;;;;;;;10.10;2.67;;;;;;;9.45;97.18;100772.72;5112065;27;20076;-59
2023/12/23 10:56:35;;;;;;;8.80;3.35;;;;;;;9.54;95.94;100759.72;5092216;27;20027;-59
2023/12/23 10:59:00;;;;;;;10.13;2.50;;;;;;;9.65;95.99;100758.25;5111584;27;20107;-59
2023/12/23 11:01:28;;;;;;;11.77;3.03;;;;;;;9.68;95.27;100763.38;5113697;27;20115;-59
2023/12/23 11:03:59;;;;;;;10.23;2.58;;;;;;;9.65;95.15;100777.69;5111251;28;20186;-59
2023/12/23 11:06:27;;;;;;;8.52;2.38;;;;;;;9.61;95.86;100778.78;5109371;28;20057;-59
2023/12/23 11:08:54;;;;;;;7.13;2.70;;;;;;;9.68;96.43;100766.88;5111834;28;20155;-59
2023/12/23 11:11:20;;;;;;;9.30;2.67;;;;;;;9.59;95.82;100758.59;5092722;28;20489;-59
2023/12/23 11:13:46;;;;;;;8.05;2.40;;;;;;;9.62;96.08;100766.38;5093542;28;20024;-59
2023/12/23 11:16:12;;;;;;;8.30;2.40;;;;;;;9.72;94.64;100762.22;5093769;28;20502;-59